Terminal Aerodrome Forecast
Issued by NWS Houston/Galveston TX

Home | Current Version | Previous Version | Text Only | Print | Product List | Glossary On
Versions: 1 2 3 4 5 6 7 8 9 10 11 12 13 14 15 16 17 18 19 20 21 22 23 24 25 26 27
000
FTUS44 KHGX 210312 AAA
TAFHOU
TAF AMD
KHOU 210312Z 2103/2124 15004KT P6SM FEW030 FEW250
     FM211000 VRB02KT P6SM SCT025
      TEMPO 2114/2116 BKN030
     FM211700 13006KT P6SM VCSH SCT035 SCT250 PROB30 2120/2123
      VRB08G18KT TSRA BKN030CB OVC250=

USA.gov is the U.S. government's official web portal to all federal, state and local government web resources and services.